sensor_id;sensor_type;location;lat;lon;timestamp;pressure;altitude;pressure_sealevel;temperature;humidity
53689;BME280;39583;54.682;30.662;2023-03-01T06:43:36;99740.16;;;-0.90;99.13
53689;BME280;39583;54.682;30.662;2023-03-01T06:46:06;99749.16;;;-0.73;97.48
53689;BME280;39583;54.682;30.662;2023-03-01T06:48:34;99742.91;;;-0.72;96.36
53689;BME280;39583;54.682;30.662;2023-03-01T06:51:01;99748.88;;;-0.60;95.43
53689;BME280;39583;54.682;30.662;2023-03-01T06:53:28;99742.31;;;-0.56;95.23
53689;BME280;39583;54.682;30.662;2023-03-01T06:55:57;99755.78;;;-0.40;94.30
53689;BME280;39583;54.682;30.662;2023-03-01T06:58:23;99751.47;;;-0.31;94.26
53689;BME280;39583;54.682;30.662;2023-03-01T07:00:49;99752.16;;;-0.29;94.03
53689;BME280;39583;54.682;30.662;2023-03-01T07:03:15;99742.28;;;-0.37;93.21
53689;BME280;39583;54.682;30.662;2023-03-01T07:05:42;99765.22;;;-0.18;93.15
53689;BME280;39583;54.682;30.662;2023-03-01T07:08:08;99765.91;;;-0.16;92.71
53689;BME280;39583;54.682;30.662;2023-03-01T07:10:34;99742.13;;;-0.25;92.34
53689;BME280;39583;54.682;30.662;2023-03-01T07:13:00;99761.41;;;-0.06;92.57
53689;BME280;39583;54.682;30.662;2023-03-01T07:15:28;99742.06;;;-0.16;91.70
53689;BME280;39583;54.682;30.662;2023-03-01T07:59:10;99766.97;;;-0.55;86.03
53689;BME280;39583;54.682;30.662;2023-03-01T08:01:37;99759.03;;;-0.55;86.03
53689;BME280;39583;54.682;30.662;2023-03-01T08:04:03;99763.72;;;-0.30;86.05
53689;BME280;39583;54.682;30.662;2023-03-01T08:06:34;99775.94;;;-0.10;85.61
53689;BME280;39583;54.682;30.662;2023-03-01T08:09:01;99751.34;;;-0.02;85.73
53689;BME280;39583;54.682;30.662;2023-03-01T08:11:27;99770.53;;;0.19;85.58
53689;BME280;39583;54.682;30.662;2023-03-01T08:13:56;99760.06;;;0.18;85.04
53689;BME280;39583;54.682;30.662;2023-03-01T08:16:23;99779.28;;;0.20;83.97
53689;BME280;39583;54.682;30.662;2023-03-01T08:18:49;99776.69;;;0.10;83.52
53689;BME280;39583;54.682;30.662;2023-03-01T08:21:16;99786.13;;;0.13;82.75
53689;BME280;39583;54.682;30.662;2023-03-01T08:23:43;99774.47;;;0.06;82.41
53689;BME280;39583;54.682;30.662;2023-03-01T08:26:17;99782.25;;;0.17;80.58
53689;BME280;39583;54.682;30.662;2023-03-01T08:28:44;99802.91;;;0.41;80.33
53689;BME280;39583;54.682;30.662;2023-03-01T08:31:23;99790.53;;;0.59;80.42
53689;BME280;39583;54.682;30.662;2023-03-01T08:33:51;99796.00;;;0.57;80.12
53689;BME280;39583;54.682;30.662;2023-03-01T08:36:25;99791.91;;;0.63;80.23
53689;BME280;39583;54.682;30.662;2023-03-01T08:38:52;99802.16;;;0.76;79.53
53689;BME280;39583;54.682;30.662;2023-03-01T08:41:19;99800.28;;;1.04;79.53
53689;BME280;39583;54.682;30.662;2023-03-01T08:43:45;99789.41;;;1.25;78.75
53689;BME280;39583;54.682;30.662;2023-03-01T08:46:12;99797.25;;;1.52;78.46
53689;BME280;39583;54.682;30.662;2023-03-01T08:48:39;99799.50;;;1.65;77.78
53689;BME280;39583;54.682;30.662;2023-03-01T08:51:16;99790.41;;;1.67;76.45
53689;BME280;39583;54.682;30.662;2023-03-01T08:53:44;99800.84;;;1.69;75.70
53689;BME280;39583;54.682;30.662;2023-03-01T08:56:10;99792.53;;;1.64;75.07
53689;BME280;39583;54.682;30.662;2023-03-01T08:58:38;99797.97;;;1.80;75.77
53689;BME280;39583;54.682;30.662;2023-03-01T09:01:09;99796.94;;;1.99;76.18
53689;BME280;39583;54.682;30.662;2023-03-01T09:03:36;99808.06;;;1.76;73.96
53689;BME280;39583;54.682;30.662;2023-03-01T09:06:03;99808.91;;;1.77;74.31
53689;BME280;39583;54.682;30.662;2023-03-01T09:08:30;99803.66;;;1.85;74.82
53689;BME280;39583;54.682;30.662;2023-03-01T09:10:56;99799.22;;;1.94;74.11
53689;BME280;39583;54.682;30.662;2023-03-01T09:13:22;99809.00;;;1.93;73.94
53689;BME280;39583;54.682;30.662;2023-03-01T09:15:52;99801.28;;;1.82;73.67
53689;BME280;39583;54.682;30.662;2023-03-01T09:18:19;99801.09;;;1.75;73.87
53689;BME280;39583;54.682;30.662;2023-03-01T09:20:44;99806.25;;;1.77;73.36
53689;BME280;39583;54.682;30.662;2023-03-01T09:23:11;99796.09;;;1.72;73.04
53689;BME280;39583;54.682;30.662;2023-03-01T09:25:37;99792.78;;;1.70;73.38
53689;BME280;39583;54.682;30.662;2023-03-01T09:28:03;99807.47;;;1.65;73.21
53689;BME280;39583;54.682;30.662;2023-03-01T09:30:29;99801.88;;;1.50;72.03
53689;BME280;39583;54.682;30.662;2023-03-01T09:32:56;99801.53;;;1.45;71.60
53689;BME280;39583;54.682;30.662;2023-03-01T09:35:22;99810.91;;;1.57;70.52
53689;BME280;39583;54.682;30.662;2023-03-01T09:37:49;99797.88;;;1.90;71.04
53689;BME280;39583;54.682;30.662;2023-03-01T09:40:21;99801.25;;;2.26;70.57
53689;BME280;39583;54.682;30.662;2023-03-01T09:42:58;99796.03;;;2.50;72.20
53689;BME280;39583;54.682;30.662;2023-03-01T09:45:34;99809.06;;;2.61;70.63
53689;BME280;39583;54.682;30.662;2023-03-01T09:48:01;99807.72;;;2.31;67.81
53689;BME280;39583;54.682;30.662;2023-03-01T09:50:34;99798.91;;;2.23;69.43
53689;BME280;39583;54.682;30.662;2023-03-01T09:53:05;99812.44;;;2.38;69.66
53689;BME280;39583;54.682;30.662;2023-03-01T10:04:43;99782.25;;;2.55;69.65
53689;BME280;39583;54.682;30.662;2023-03-01T10:06:51;99780.09;;;2.50;69.94
53689;BME280;39583;54.682;30.662;2023-03-01T10:09:23;99779.25;;;2.50;70.61
53689;BME280;39583;54.682;30.662;2023-03-01T13:23:40;99769.91;;;1.16;65.87
53689;BME280;39583;54.682;30.662;2023-03-01T13:26:15;99772.78;;;1.40;67.69
53689;BME280;39583;54.682;30.662;2023-03-01T13:34:01;99763.56;;;1.70;67.47
53689;BME280;39583;54.682;30.662;2023-03-01T13:36:53;99728.66;;;1.57;66.67
53689;BME280;39583;54.682;30.662;2023-03-01T13:39:39;99741.22;;;1.81;67.71
53689;BME280;39583;54.682;30.662;2023-03-01T13:42:37;99760.44;;;2.01;67.70
53689;BME280;39583;54.682;30.662;2023-03-01T13:45:12;99727.00;;;1.90;67.67
53689;BME280;39583;54.682;30.662;2023-03-01T13:47:42;99747.50;;;2.06;67.84
53689;BME280;39583;54.682;30.662;2023-03-01T13:50:19;99699.97;;;1.95;68.60
53689;BME280;39583;54.682;30.662;2023-03-01T13:52:53;99735.28;;;2.21;66.17
53689;BME280;39583;54.682;30.662;2023-03-01T13:55:44;99736.31;;;2.28;67.30
53689;BME280;39583;54.682;30.662;2023-03-01T13:58:32;99735.44;;;2.20;66.77
53689;BME280;39583;54.682;30.662;2023-03-01T14:01:18;99734.88;;;2.00;67.69
53689;BME280;39583;54.682;30.662;2023-03-01T14:03:46;99690.28;;;1.52;68.39
53689;BME280;39583;54.682;30.662;2023-03-01T14:06:15;99727.94;;;1.55;67.73
53689;BME280;39583;54.682;30.662;2023-03-01T14:08:44;99726.94;;;1.30;66.92
53689;BME280;39583;54.682;30.662;2023-03-01T14:19:30;99721.34;;;0.62;68.18
53689;BME280;39583;54.682;30.662;2023-03-01T14:24:57;99729.38;;;0.70;67.48
53689;BME280;39583;54.682;30.662;2023-03-01T14:27:35;99713.38;;;0.62;67.85
53689;BME280;39583;54.682;30.662;2023-03-01T14:30:10;99723.25;;;0.70;67.82
53689;BME280;39583;54.682;30.662;2023-03-01T14:32:38;99696.88;;;0.50;68.68
53689;BME280;39583;54.682;30.662;2023-03-01T14:35:22;99693.94;;;0.53;68.68
53689;BME280;39583;54.682;30.662;2023-03-01T14:37:49;99713.94;;;0.66;68.27
53689;BME280;39583;54.682;30.662;2023-03-01T14:40:34;99723.72;;;0.65;69.06
53689;BME280;39583;54.682;30.662;2023-03-01T14:43:08;99715.16;;;0.71;69.11
53689;BME280;39583;54.682;30.662;2023-03-01T14:45:36;99718.88;;;0.78;69.55
53689;BME280;39583;54.682;30.662;2023-03-01T14:48:04;99710.22;;;0.76;69.55
53689;BME280;39583;54.682;30.662;2023-03-01T14:50:34;99706.38;;;0.71;70.35
53689;BME280;39583;54.682;30.662;2023-03-01T14:53:03;99704.84;;;0.68;70.21
53689;BME280;39583;54.682;30.662;2023-03-01T14:57:58;99700.91;;;0.54;71.58
53689;BME280;39583;54.682;30.662;2023-03-01T15:00:30;99619.63;;;0.10;71.23
53689;BME280;39583;54.682;30.662;2023-03-01T15:03:06;99636.19;;;0.12;71.51
53689;BME280;39583;54.682;30.662;2023-03-01T15:05:40;99685.91;;;0.45;71.94
53689;BME280;39583;54.682;30.662;2023-03-01T15:08:19;99630.78;;;0.13;72.30
53689;BME280;39583;54.682;30.662;2023-03-01T15:11:28;99677.94;;;0.45;72.70
53689;BME280;39583;54.682;30.662;2023-03-01T15:13:55;99680.75;;;0.44;73.33
53689;BME280;39583;54.682;30.662;2023-03-01T15:18:59;99635.31;;;0.21;72.15
53689;BME280;39583;54.682;30.662;2023-03-01T15:21:32;99673.28;;;0.39;72.64
53689;BME280;39583;54.682;30.662;2023-03-01T15:27:12;99680.78;;;0.16;73.02
53689;BME280;39583;54.682;30.662;2023-03-01T15:29:48;99670.41;;;0.05;72.59
53689;BME280;39583;54.682;30.662;2023-03-01T15:32:28;99664.31;;;-0.05;73.04
53689;BME280;39583;54.682;30.662;2023-03-01T15:34:56;99658.53;;;-0.18;73.42
53689;BME280;39583;54.682;30.662;2023-03-01T15:37:37;99664.56;;;-0.26;73.63
53689;BME280;39583;54.682;30.662;2023-03-01T15:40:19;99635.53;;;-0.45;73.79
53689;BME280;39583;54.682;30.662;2023-03-01T15:42:47;99653.06;;;-0.44;73.68
53689;BME280;39583;54.682;30.662;2023-03-01T15:47:47;99646.44;;;-0.68;74.74
53689;BME280;39583;54.682;30.662;2023-03-01T15:50:37;99650.53;;;-0.83;75.02
53689;BME280;39583;54.682;30.662;2023-03-01T15:53:09;99651.13;;;-0.99;75.37
53689;BME280;39583;54.682;30.662;2023-03-01T15:55:37;99649.88;;;-1.14;76.21
53689;BME280;39583;54.682;30.662;2023-03-01T15:58:12;99647.53;;;-1.27;76.41
53689;BME280;39583;54.682;30.662;2023-03-01T16:00:40;99625.44;;;-1.55;76.68
53689;BME280;39583;54.682;30.662;2023-03-01T16:03:08;99650.88;;;-1.54;77.21
53689;BME280;39583;54.682;30.662;2023-03-01T16:05:38;99649.47;;;-1.67;77.79
53689;BME280;39583;54.682;30.662;2023-03-01T16:08:05;99652.50;;;-1.82;77.56
53689;BME280;39583;54.682;30.662;2023-03-01T16:10:33;99648.97;;;-2.01;77.86
53689;BME280;39583;54.682;30.662;2023-03-01T16:12:59;99647.44;;;-2.04;77.91
53689;BME280;39583;54.682;30.662;2023-03-01T16:15:32;99657.13;;;-2.14;77.63
53689;BME280;39583;54.682;30.662;2023-03-01T16:18:00;99668.09;;;-2.19;77.95
53689;BME280;39583;54.682;30.662;2023-03-01T16:20:27;99664.03;;;-2.23;78.06
53689;BME280;39583;54.682;30.662;2023-03-01T16:22:53;99665.41;;;-2.28;78.41
53689;BME280;39583;54.682;30.662;2023-03-01T16:25:21;99668.19;;;-2.30;78.52
53689;BME280;39583;54.682;30.662;2023-03-01T16:27:49;99658.75;;;-2.23;78.49
53689;BME280;39583;54.682;30.662;2023-03-01T16:30:19;99658.50;;;-2.20;78.70
53689;BME280;39583;54.682;30.662;2023-03-01T16:32:47;99658.78;;;-2.13;78.45
53689;BME280;39583;54.682;30.662;2023-03-01T16:35:15;99657.16;;;-2.04;78.42
53689;BME280;39583;54.682;30.662;2023-03-01T16:37:42;99655.50;;;-1.96;78.45
53689;BME280;39583;54.682;30.662;2023-03-01T16:40:18;99652.63;;;-1.93;78.15
53689;BME280;39583;54.682;30.662;2023-03-01T16:42:45;99631.75;;;-1.96;78.24
53689;BME280;39583;54.682;30.662;2023-03-01T16:45:11;99631.66;;;-1.94;78.12
53689;BME280;39583;54.682;30.662;2023-03-01T16:47:37;99627.44;;;-1.97;77.65
53689;BME280;39583;54.682;30.662;2023-03-01T16:50:04;99621.19;;;-1.96;77.76
53689;BME280;39583;54.682;30.662;2023-03-01T16:52:30;99609.53;;;-2.03;77.54
53689;BME280;39583;54.682;30.662;2023-03-01T16:54:56;99599.41;;;-2.08;76.96
53689;BME280;39583;54.682;30.662;2023-03-01T16:57:23;99604.38;;;-2.14;77.43
53689;BME280;39583;54.682;30.662;2023-03-01T16:59:53;99602.28;;;-2.20;77.25
53689;BME280;39583;54.682;30.662;2023-03-01T17:02:20;99603.50;;;-2.24;77.65
53689;BME280;39583;54.682;30.662;2023-03-01T17:04:54;99601.44;;;-2.21;77.64
53689;BME280;39583;54.682;30.662;2023-03-01T17:07:22;99599.38;;;-2.17;77.40
53689;BME280;39583;54.682;30.662;2023-03-01T17:09:48;99586.31;;;-2.19;77.82
53689;BME280;39583;54.682;30.662;2023-03-01T17:12:15;99581.88;;;-2.18;77.95
53689;BME280;39583;54.682;30.662;2023-03-01T17:14:42;99610.63;;;-1.96;77.42
53689;BME280;39583;54.682;30.662;2023-03-01T17:17:10;99594.81;;;-1.86;77.66
53689;BME280;39583;54.682;30.662;2023-03-01T17:19:37;99577.19;;;-1.86;77.70
53689;BME280;39583;54.682;30.662;2023-03-01T17:22:10;99600.56;;;-1.52;76.94
53689;BME280;39583;54.682;30.662;2023-03-01T17:24:39;99602.47;;;-1.35;76.92
53689;BME280;39583;54.682;30.662;2023-03-01T17:27:07;99596.66;;;-1.29;76.46
53689;BME280;39583;54.682;30.662;2023-03-01T17:29:34;99539.38;;;-1.57;76.24
53689;BME280;39583;54.682;30.662;2023-03-01T17:32:00;99555.47;;;-1.31;76.51
53689;BME280;39583;54.682;30.662;2023-03-01T17:34:27;99573.66;;;-1.19;76.72
53689;BME280;39583;54.682;30.662;2023-03-01T17:36:53;99531.44;;;-1.38;76.01
53689;BME280;39583;54.682;30.662;2023-03-01T17:39:19;99573.81;;;-1.10;76.40
53689;BME280;39583;54.682;30.662;2023-03-01T17:41:51;99562.53;;;-1.03;76.26
53689;BME280;39583;54.682;30.662;2023-03-01T17:44:17;99562.41;;;-1.11;75.68
53689;BME280;39583;54.682;30.662;2023-03-01T17:46:44;99557.09;;;-1.01;75.66
53689;BME280;39583;54.682;30.662;2023-03-01T17:49:10;99531.81;;;-1.13;75.55
53689;BME280;39583;54.682;30.662;2023-03-01T17:51:37;99553.88;;;-0.95;75.75
53689;BME280;39583;54.682;30.662;2023-03-01T17:54:03;99506.38;;;-1.14;75.34
53689;BME280;39583;54.682;30.662;2023-03-01T17:56:30;99534.13;;;-0.91;75.18
53689;BME280;39583;54.682;30.662;2023-03-01T17:58:59;99552.41;;;-0.80;74.88
53689;BME280;39583;54.682;30.662;2023-03-01T18:01:26;99537.69;;;-0.82;74.61
53689;BME280;39583;54.682;30.662;2023-03-01T18:03:53;99541.84;;;-0.80;74.57
53689;BME280;39583;54.682;30.662;2023-03-01T18:06:24;99501.31;;;-0.98;74.90
53689;BME280;39583;54.682;30.662;2023-03-01T18:08:51;99514.88;;;-0.83;74.92
53689;BME280;39583;54.682;30.662;2023-03-01T18:11:21;99513.16;;;-0.75;75.03
53689;BME280;39583;54.682;30.662;2023-03-01T18:13:48;99526.88;;;-0.62;74.77
53689;BME280;39583;54.682;30.662;2023-03-01T18:16:18;99530.06;;;-0.58;75.25
53689;BME280;39583;54.682;30.662;2023-03-01T18:18:45;99524.31;;;-0.53;74.68
53689;BME280;39583;54.682;30.662;2023-03-01T18:21:13;99504.59;;;-0.59;74.47
53689;BME280;39583;54.682;30.662;2023-03-01T18:23:40;99522.09;;;-0.48;74.01
53689;BME280;39583;54.682;30.662;2023-03-01T18:26:09;99524.81;;;-0.40;73.92
53689;BME280;39583;54.682;30.662;2023-03-01T18:28:37;99515.59;;;-0.36;74.34
53689;BME280;39583;54.682;30.662;2023-03-01T18:31:06;99519.59;;;-0.32;73.68
53689;BME280;39583;54.682;30.662;2023-03-01T18:33:36;99511.22;;;-0.27;73.25
53689;BME280;39583;54.682;30.662;2023-03-01T18:36:04;99466.03;;;-0.34;73.13
53689;BME280;39583;54.682;30.662;2023-03-01T18:38:31;99504.88;;;-0.17;73.04
53689;BME280;39583;54.682;30.662;2023-03-01T18:40:58;99492.16;;;-0.13;72.70
53689;BME280;39583;54.682;30.662;2023-03-01T18:43:25;99489.09;;;-0.09;73.19
53689;BME280;39583;54.682;30.662;2023-03-01T18:45:57;99479.66;;;-0.11;73.01
53689;BME280;39583;54.682;30.662;2023-03-01T18:48:23;99425.94;;;-0.39;73.00
53689;BME280;39583;54.682;30.662;2023-03-01T18:50:49;99466.63;;;-0.05;71.95
53689;BME280;39583;54.682;30.662;2023-03-01T18:53:15;99463.97;;;0.13;71.65
53689;BME280;39583;54.682;30.662;2023-03-01T18:55:42;99471.63;;;0.16;72.08
53689;BME280;39583;54.682;30.662;2023-03-01T18:58:09;99436.44;;;0.06;71.55
53689;BME280;39583;54.682;30.662;2023-03-01T19:00:35;99441.84;;;0.22;71.72
